This is the latest recevied weather packets stored in our database for station/object I2HLY-3. If no packets are shown the sender has not sent any weather packets the latest 10 day(s).
| Time | Temp. | Humidity | Pressure | Rain* | Wind** | Luminosity | Snow |
|---|---|---|---|---|---|---|---|
| 1778077948 | 18.89° C | 79% | 1004.8 hPa | 3.05 mm | - | - | - |
| 1778077047 | 17.78° C | 81% | 1005 hPa | 3.05 mm | - | - | - |
| 1778076169 | 18.33° C | 80% | 1005.3 hPa | 3.05 mm | - | - | - |
| 1778075251 | 17.78° C | 82% | 1005.4 hPa | 3.05 mm | - | - | - |
| 1778074352 | 17.78° C | 82% | 1005.7 hPa | 0 mm | - | - | - |
| 1778073451 | 17.78° C | 82% | 1005.8 hPa | 0 mm | - | - | - |
| 1778072536 | 17.78° C | 85% | 1006 hPa | 0 mm | - | - | - |
| 1778071638 | 17.22° C | 86% | 1006.3 hPa | 0 mm | - | - | - |
| 1778070737 | 16.67° C | 88% | 1006.2 hPa | 0 mm | - | - | - |
| 1778069839 | 15.56° C | 91% | 1006.3 hPa | 0 mm | - | - | - |
| 1778068945 | 15° C | 91% | 1006.2 hPa | 0 mm | - | - | - |
| 1778068045 | 15.56° C | 88% | 1006.5 hPa | 0 mm | - | - | - |
| 1778067144 | 16.11° C | 86% | 1006.6 hPa | 0 mm | - | - | - |
| 1778066249 | 15.56° C | 89% | 1006.6 hPa | 0 mm | - | - | - |
| 1778065350 | 15.56° C | 88% | 1006.5 hPa | 0 mm | - | - | - |
| 1778064448 | 15.56° C | 88% | 1006.6 hPa | 0 mm | - | - | - |
| 1778063554 | 16.11° C | 88% | 1006.8 hPa | 0 mm | - | - | - |
| 1778062654 | 15.56° C | 89% | 1006.9 hPa | 1.02 mm | - | - | - |
| 1778061735 | 15.56° C | 91% | 1007 hPa | 1.02 mm | - | - | - |
| 1778060841 | 14.44° C | 93% | 1007.1 hPa | 1.02 mm | - | - | - |
| 1778059941 | 13.89° C | 93% | 1007 hPa | 1.02 mm | - | - | - |
| 1778059042 | 13.89° C | 94% | 1006.8 hPa | 0 mm | - | - | - |
| 1778058146 | 13.33° C | 94% | 1007.1 hPa | 0 mm | - | - | - |
| 1778057248 | 13.33° C | 93% | 1007.1 hPa | 0 mm | - | - | - |
| 1778056348 | 13.89° C | 92% | 1007 hPa | 0 mm | - | - | - |
* Rain latest hour (hover to see other rain measurements)
** Current wind speed in m/s (hover to see current wind gust speed)